F/V Vent Du Large — FVHN — position and weather

sailwx.info

Track history (hours):
 
Tides and Currents Weather Stations Pressure Air Temp Water Temp Dewpoint Dewpoint Depression Visibility Wind Speed Wind Dir Waves Ship Positions

F/V Vent Du Large

Last reported at 2017-Nov-19 02:30 UTC. Time now 2017-Nov-19 03:06 UTC.
Position N 44°22' W 001°23'.

Length 14 m.

Type: Fishing. MMSI: 227582000.

Date/timePositionNaut miles runAvg speedWind from/ knotsBaromVisibWave heightAir tempDewpointWater temp
2017-Nov-19 02:30N 44°22' W 001°23'2 3.9
2017-Nov-19 02:00N 44°24' W 001°23'3 2.5
2017-Nov-19 00:56N 44°21' W 001°23'1 0.3
2017-Nov-18 22:19N 44°22' W 001°22'1 3.8
2017-Nov-18 22:00N 44°24' W 001°22'2 3.8
2017-Nov-18 21:30N 44°25' W 001°22'2 3.5
2017-Nov-18 21:00N 44°27' W 001°23'1 2.6
2017-Nov-18 20:27N 44°29' W 001°23'1 2.4
2017-Nov-18 20:00N 44°30' W 001°22'2 3.4
2017-Nov-18 19:30N 44°31' W 001°22'1 2.7
2017-Nov-18 19:00N 44°30' W 001°21'2 3.4
2017-Nov-18 18:30N 44°29' W 001°21'2 3.4
2017-Nov-18 18:00N 44°27' W 001°21'2 3.5
2017-Nov-18 17:30N 44°25' W 001°21'2 3.4
2017-Nov-18 17:00N 44°23' W 001°22'2 3.3
2017-Nov-18 16:30N 44°22' W 001°23'1 2.9
2017-Nov-18 16:00N 44°23' W 001°23'2 3.7
2017-Nov-18 15:30N 44°25' W 001°23'2 3.7
2017-Nov-18 15:00N 44°27' W 001°22'2 3.7
2017-Nov-18 14:30N 44°29' W 001°22'2 3.7
2017-Nov-18 14:01N 44°31' W 001°23'2 3.6
2017-Nov-18 13:31N 44°33' W 001°23'2 3.6
2017-Nov-18 13:01N 44°34' W 001°23'2 3.6
2017-Nov-18 12:30N 44°36' W 001°23'2 3.7
2017-Nov-18 12:01N 44°38' W 001°23'1 2.5
2017-Nov-18 11:30N 44°39' W 001°23'2 3.5
2017-Nov-18 11:00N 44°41' W 001°23'2 3.4
2017-Nov-18 10:30N 44°43' W 001°23'2 3.4
2017-Nov-18 10:00N 44°44' W 001°23'2 3.3
2017-Nov-18 09:30N 44°46' W 001°23'2 3.4
2017-Nov-18 09:00N 44°48' W 001°23'2 3.5
2017-Nov-18 08:30N 44°49' W 001°23'2 3.0
2017-Nov-18 08:00N 44°51' W 001°23'4 7.3
2017-Nov-18 07:30N 44°55' W 001°22'49 2.2
2017-Nov-17 09:44N 45°43' W 001°21'310.2
2017-Nov-17 09:27N 45°41' W 001°21'16 9.7
2017-Nov-17 07:51N 45°25' W 001°23'4 9.2
2017-Nov-17 07:23N 45°21' W 001°23'4 9.1
2017-Nov-17 06:57N 45°17' W 001°24'4 8.7
2017-Nov-17 06:28N 45°12' W 001°24'4 8.6
2017-Nov-17 05:59N 45°08' W 001°25'4 8.7
2017-Nov-17 05:30N 45°04' W 001°25'4 8.6
2017-Nov-17 05:00N 44°60' W 001°25'3 3.7
2017-Nov-17 04:18N 44°57' W 001°26'1 3.5
2017-Nov-17 03:54N 44°56' W 001°26'2 3.5
2017-Nov-17 03:24N 44°54' W 001°26'1 3.5
2017-Nov-17 03:00N 44°53' W 001°26'2 3.5
2017-Nov-17 02:30N 44°51' W 001°26'2 3.4
2017-Nov-17 02:00N 44°49' W 001°26'2 3.5
2017-Nov-17 01:30N 44°48' W 001°25'2 3.6
2017-Nov-17 01:00N 44°46' W 001°25'2 3.7
2017-Nov-17 00:30N 44°44' W 001°25'1 1.9
2017-Nov-17 00:00N 44°45' W 001°24'2 3.5
2017-Nov-16 23:30N 44°47' W 001°24'2 3.5
2017-Nov-16 23:00N 44°48' W 001°24'1 1.1
2017-Nov-16 22:30N 44°48' W 001°24'2 3.8
2017-Nov-16 22:00N 44°47' W 001°24'2 3.8
2017-Nov-16 21:30N 44°45' W 001°25'2 3.8
2017-Nov-16 21:00N 44°43' W 001°25'2 4.2
2017-Nov-16 20:30N 44°41' W 001°24'1 1.2
2017-Nov-16 20:00N 44°41' W 001°23'2 3.4
2017-Nov-16 19:30N 44°43' W 001°24'2 3.4
2017-Nov-16 19:00N 44°45' W 001°24'2 3.5
2017-Nov-16 18:30N 44°46' W 001°23'2 3.6
2017-Nov-16 18:00N 44°48' W 001°23'1 2.5
2017-Nov-16 17:30N 44°49' W 001°24'2 3.5
2017-Nov-16 17:00N 44°48' W 001°23'2 3.5
2017-Nov-16 16:30N 44°46' W 001°24'0 0.7
2017-Nov-16 16:00N 44°46' W 001°24'2 3.8
2017-Nov-16 15:30N 44°47' W 001°24'2 3.5
2017-Nov-16 15:00N 44°49' W 001°24'2 3.2
2017-Nov-16 14:31N 44°48' W 001°24'2 3.5
2017-Nov-16 14:00N 44°46' W 001°24'2 3.5
2017-Nov-16 13:30N 44°44' W 001°24'2 3.4
2017-Nov-16 13:01N 44°42' W 001°23'2 3.9
2017-Nov-16 12:30N 44°41' W 001°24'1 2.6
2017-Nov-16 12:00N 44°42' W 001°24'2 3.6
2017-Nov-16 11:30N 44°44' W 001°25'2 3.7
2017-Nov-16 11:01N 44°45' W 001°24'2 3.5
2017-Nov-16 10:30N 44°47' W 001°25'2 3.5
2017-Nov-16 10:00N 44°49' W 001°25'1 1.4
2017-Nov-16 09:30N 44°49' W 001°25'2 3.8
2017-Nov-16 09:01N 44°48' W 001°25'2 3.8
2017-Nov-16 08:30N 44°46' W 001°26'2 3.1
2017-Nov-16 07:59N 44°44' W 001°26'2 3.1
2017-Nov-16 07:30N 44°46' W 001°26'2 3.6
2017-Nov-16 07:01N 44°47' W 001°26'1 2.0
2017-Nov-16 06:30N 44°48' W 001°25'2 3.6
2017-Nov-16 06:00N 44°46' W 001°25'2 3.5
2017-Nov-16 05:30N 44°44' W 001°24'2 3.5
2017-Nov-16 05:00N 44°43' W 001°23'2 3.4
2017-Nov-16 04:31N 44°41' W 001°23'2 3.8
2017-Nov-16 04:00N 44°39' W 001°23'2 3.8
2017-Nov-16 03:30N 44°37' W 001°23'2 3.3
2017-Nov-16 03:00N 44°36' W 001°23'2 3.6
2017-Nov-16 02:30N 44°34' W 001°23'2 3.6
2017-Nov-16 02:00N 44°32' W 001°23'3 3.6
2017-Nov-16 01:12N 44°29' W 001°23'1 3.6
2017-Nov-16 01:00N 44°28' W 001°23'2 3.6
2017-Nov-16 00:30N 44°27' W 001°22'2 3.7
2017-Nov-16 00:00N 44°25' W 001°22'2 3.8
2017-Nov-15 23:29N 44°23' W 001°22'6 3.6
2017-Nov-15 21:55N 44°17' W 001°24'1 3.6
2017-Nov-15 21:30N 44°16' W 001°25'2 2.2
2017-Nov-15 20:27N 44°18' W 001°23'2 3.8
2017-Nov-15 20:00N 44°20' W 001°23'1 2.5
2017-Nov-15 19:29N 44°21' W 001°22'4 3.7
2017-Nov-15 18:26N 44°17' W 001°24'2 3.8
2017-Nov-15 18:00N 44°16' W 001°24'1 2.6
2017-Nov-15 17:30N 44°17' W 001°24'2 3.8
2017-Nov-15 17:00N 44°19' W 001°23'2 3.9
2017-Nov-15 16:28N 44°21' W 001°23'2 3.9
2017-Nov-15 16:00N 44°22' W 001°22'1 1.9
2017-Nov-15 15:30N 44°23' W 001°21'2 3.6
2017-Nov-15 15:00N 44°21' W 001°22'2 3.7
2017-Nov-15 14:30N 44°19' W 001°22'2 3.7
2017-Nov-15 14:00N 44°17' W 001°23'2 3.9
2017-Nov-15 13:30N 44°16' W 001°24'1 1.6
2017-Nov-15 13:00N 44°16' W 001°24'2 3.9
2017-Nov-15 12:30N 44°18' W 001°23'2 3.8
2017-Nov-15 12:00N 44°20' W 001°22'1 1.1
2017-Nov-15 10:38N 44°21' W 001°22'0 3.8
2017-Nov-15 10:30N 44°21' W 001°22'2 3.8
2017-Nov-15 10:00N 44°19' W 001°23'7 3.8
2017-Nov-15 08:12N 44°12' W 001°24'1 3.7
2017-Nov-15 08:00N 44°12' W 001°24'4 2.4
2017-Nov-15 06:28N 44°08' W 001°27'4 1.1
2017-Nov-15 02:49N 44°12' W 001°26'1 3.9
2017-Nov-15 02:28N 44°14' W 001°25'2 3.7
2017-Nov-15 01:58N 44°15' W 001°26'2 3.6
2017-Nov-15 01:30N 44°17' W 001°26'2 3.6
2017-Nov-15 00:53N 44°19' W 001°26'1 3.7
2017-Nov-15 00:30N 44°21' W 001°26'2 3.6
2017-Nov-14 23:50N 44°23' W 001°26'2 3.9
2017-Nov-14 23:26N 44°24' W 001°28'2 3.5
2017-Nov-14 22:55N 44°26' W 001°28'2 3.7
2017-Nov-14 22:16N 44°29' W 001°27'1 3.7
2017-Nov-14 22:00N 44°30' W 001°27'2 3.6
2017-Nov-14 21:30N 44°31' W 001°27'2 3.3
2017-Nov-14 21:00N 44°32' W 001°25'2 3.5
2017-Nov-14 20:26N 44°30' W 001°25'2 3.6
2017-Nov-14 20:00N 44°29' W 001°24'2 3.7
2017-Nov-14 19:29N 44°27' W 001°24'2 2.7
2017-Nov-14 18:47N 44°25' W 001°23'2 0.7
2017-Nov-14 15:30N 44°23' W 001°23'2 3.8
2017-Nov-14 14:59N 44°24' W 001°24'1 0.3
2017-Nov-14 10:03N 44°25' W 001°26'0 3.8
2017-Nov-14 10:00N 44°25' W 001°26'2 3.8
2017-Nov-14 09:30N 44°27' W 001°26'2 3.6
2017-Nov-14 09:00N 44°29' W 001°25'2 3.8
2017-Nov-14 08:30N 44°31' W 001°25'2 3.7
2017-Nov-14 08:00N 44°33' W 001°25'2 3.7
2017-Nov-14 07:30N 44°35' W 001°26'2 4.0
2017-Nov-14 07:00N 44°37' W 001°26'3 6.7
2017-Nov-14 06:30N 44°40' W 001°26'5 9.1
2017-Nov-14 06:00N 44°45' W 001°26'5 9.1
2017-Nov-14 05:30N 44°49' W 001°25'8 9.0
2017-Nov-14 04:36N 44°57' W 001°25'1 8.9
2017-Nov-14 04:30N 44°58' W 001°25'33 9.3
2017-Nov-14 00:59N 45°31' W 001°22'6 8.9
2017-Nov-14 00:18N 45°37' W 001°21'44 1.5
2017-Nov-12 18:42N 44°53' W 001°26'2 4.6
2017-Nov-12 18:21N 44°51' W 001°26'2 6.8
2017-Nov-12 18:00N 44°49' W 001°26'2 4.2
2017-Nov-12 17:30N 44°47' W 001°26'4 7.6
2017-Nov-12 17:00N 44°43' W 001°26'4 7.7
2017-Nov-12 16:30N 44°39' W 001°26'4 7.6
2017-Nov-12 16:00N 44°35' W 001°26'4 7.6
2017-Nov-12 15:30N 44°31' W 001°26'4 7.4
2017-Nov-12 15:00N 44°28' W 001°26'6 1.8
2017-Nov-12 11:27N 44°21' W 001°25'3 3.4
2017-Nov-12 10:40N 44°24' W 001°24'1 3.9
2017-Nov-12 10:30N 44°25' W 001°24'2 3.0
2017-Nov-12 09:44N 44°27' W 001°24'1 3.7
2017-Nov-12 09:30N 44°28' W 001°24'2 3.5
2017-Nov-12 09:00N 44°30' W 001°24'2 3.0
2017-Nov-12 08:30N 44°28' W 001°25'2 3.6
2017-Nov-12 08:00N 44°26' W 001°25'2 3.6
2017-Nov-12 07:30N 44°25' W 001°25'3 3.7
2017-Nov-12 06:46N 44°22' W 001°25'1 3.5
2017-Nov-12 06:30N 44°21' W 001°25'1 2.1
2017-Nov-12 05:48N 44°19' W 001°25'1 2.8
2017-Nov-12 05:30N 44°19' W 001°25'2 3.5
2017-Nov-12 05:00N 44°17' W 001°25'2 3.5
2017-Nov-12 04:30N 44°15' W 001°25'2 3.5
2017-Nov-12 04:00N 44°13' W 001°25'2 3.7
2017-Nov-12 03:26N 44°11' W 001°25'2 3.5
2017-Nov-12 02:59N 44°10' W 001°26'2 3.5
2017-Nov-12 02:30N 44°08' W 001°26'2 3.5
2017-Nov-12 01:59N 44°06' W 001°27'0 1.0
2017-Nov-12 01:30N 44°06' W 001°27'2 3.4
2017-Nov-12 01:00N 44°08' W 001°26'2 3.5
2017-Nov-12 00:30N 44°09' W 001°26'2 3.4
2017-Nov-11 23:59N 44°11' W 001°26'2 3.4
2017-Nov-11 23:21N 44°13' W 001°26'1 3.4
2017-Nov-11 22:57N 44°15' W 001°26'4 3.4
2017-Nov-11 21:55N 44°18' W 001°25'2 3.2
2017-Nov-11 21:14N 44°20' W 001°26'1 2.9
2017-Nov-11 21:00N 44°21' W 001°26'2 3.4
2017-Nov-11 20:18N 44°23' W 001°26'1 3.2
2017-Nov-11 20:00N 44°24' W 001°26'2 3.4
2017-Nov-11 19:29N 44°26' W 001°26'1 2.0
2017-Nov-11 19:00N 44°27' W 001°25'2 3.3
2017-Nov-11 18:29N 44°25' W 001°25'2 3.4
2017-Nov-11 17:59N 44°23' W 001°25'2 1.5
2017-Nov-11 16:58N 44°22' W 001°25'2 3.3
2017-Nov-11 16:30N 44°23' W 001°25'2 3.2
2017-Nov-11 16:00N 44°25' W 001°25'2 3.3
2017-Nov-11 15:30N 44°27' W 001°24'2 3.4
2017-Nov-11 14:47N 44°29' W 001°24'1 3.4
2017-Nov-11 14:30N 44°30' W 001°23'2 3.4
2017-Nov-11 14:00N 44°32' W 001°23'2 3.4
2017-Nov-11 13:30N 44°33' W 001°23'1 2.7
2017-Nov-11 13:00N 44°34' W 001°22'2 3.2
2017-Nov-11 12:30N 44°36' W 001°21'2 3.4
2017-Nov-11 12:00N 44°38' W 001°21'2 3.4
2017-Nov-11 11:30N 44°39' W 001°20'2 3.5
2017-Nov-11 11:00N 44°41' W 001°20'2 3.6
2017-Nov-11 10:30N 44°43' W 001°19'2 3.6
2017-Nov-11 10:00N 44°44' W 001°19'2 3.2
2017-Nov-11 09:30N 44°46' W 001°19'2 3.4
2017-Nov-11 09:00N 44°48' W 001°18'2 3.7
2017-Nov-11 08:30N 44°50' W 001°18'2 3.8
2017-Nov-11 08:00N 44°51' W 001°18'2 3.8
2017-Nov-11 07:30N 44°53' W 001°17'2 3.7
2017-Nov-11 07:00N 44°55' W 001°17'69 3.2
2017-Nov-10 09:15N 46°04' W 001°32'2 3.6
2017-Nov-10 08:46N 46°02' W 001°31'  
Track history (hours):
 
Tides and Currents Weather Stations Pressure Air Temp Water Temp Dewpoint Dewpoint Depression Visibility Wind Speed Wind Dir Waves Ship Positions

F/V Vent Du Large

Last reported at 2017-Nov-19 02:30 UTC. Time now 2017-Nov-19 03:06 UTC.
Position N 44°22' W 001°23'.

Length 14 m.

Type: Fishing. MMSI: 227582000.

Date/timePositionNaut miles runAvg speedWind from/ knotsBaromVisibWave heightAir tempDewpointWater temp
2017-Nov-19 02:30N 44°22' W 001°23'2 3.9
2017-Nov-19 02:00N 44°24' W 001°23'3 2.5
2017-Nov-19 00:56N 44°21' W 001°23'1 0.3
2017-Nov-18 22:19N 44°22' W 001°22'1 3.8
2017-Nov-18 22:00N 44°24' W 001°22'2 3.8
2017-Nov-18 21:30N 44°25' W 001°22'2 3.5
2017-Nov-18 21:00N 44°27' W 001°23'1 2.6
2017-Nov-18 20:27N 44°29' W 001°23'1 2.4
2017-Nov-18 20:00N 44°30' W 001°22'2 3.4
2017-Nov-18 19:30N 44°31' W 001°22'1 2.7
2017-Nov-18 19:00N 44°30' W 001°21'2 3.4
2017-Nov-18 18:30N 44°29' W 001°21'2 3.4
2017-Nov-18 18:00N 44°27' W 001°21'2 3.5
2017-Nov-18 17:30N 44°25' W 001°21'2 3.4
2017-Nov-18 17:00N 44°23' W 001°22'2 3.3
2017-Nov-18 16:30N 44°22' W 001°23'1 2.9
2017-Nov-18 16:00N 44°23' W 001°23'2 3.7
2017-Nov-18 15:30N 44°25' W 001°23'2 3.7
2017-Nov-18 15:00N 44°27' W 001°22'2 3.7
2017-Nov-18 14:30N 44°29' W 001°22'2 3.7
2017-Nov-18 14:01N 44°31' W 001°23'2 3.6
2017-Nov-18 13:31N 44°33' W 001°23'2 3.6
2017-Nov-18 13:01N 44°34' W 001°23'2 3.6
2017-Nov-18 12:30N 44°36' W 001°23'2 3.7
2017-Nov-18 12:01N 44°38' W 001°23'1 2.5
2017-Nov-18 11:30N 44°39' W 001°23'2 3.5
2017-Nov-18 11:00N 44°41' W 001°23'2 3.4
2017-Nov-18 10:30N 44°43' W 001°23'2 3.4
2017-Nov-18 10:00N 44°44' W 001°23'2 3.3
2017-Nov-18 09:30N 44°46' W 001°23'2 3.4
2017-Nov-18 09:00N 44°48' W 001°23'2 3.5
2017-Nov-18 08:30N 44°49' W 001°23'2 3.0
2017-Nov-18 08:00N 44°51' W 001°23'4 7.3
2017-Nov-18 07:30N 44°55' W 001°22'49 2.2
2017-Nov-17 09:44N 45°43' W 001°21'310.2
2017-Nov-17 09:27N 45°41' W 001°21'16 9.7
2017-Nov-17 07:51N 45°25' W 001°23'4 9.2
2017-Nov-17 07:23N 45°21' W 001°23'4 9.1
2017-Nov-17 06:57N 45°17' W 001°24'4 8.7
2017-Nov-17 06:28N 45°12' W 001°24'4 8.6
2017-Nov-17 05:59N 45°08' W 001°25'4 8.7
2017-Nov-17 05:30N 45°04' W 001°25'4 8.6
2017-Nov-17 05:00N 44°60' W 001°25'3 3.7
2017-Nov-17 04:18N 44°57' W 001°26'1 3.5
2017-Nov-17 03:54N 44°56' W 001°26'2 3.5
2017-Nov-17 03:24N 44°54' W 001°26'1 3.5
2017-Nov-17 03:00N 44°53' W 001°26'2 3.5
2017-Nov-17 02:30N 44°51' W 001°26'2 3.4
2017-Nov-17 02:00N 44°49' W 001°26'2 3.5
2017-Nov-17 01:30N 44°48' W 001°25'2 3.6
2017-Nov-17 01:00N 44°46' W 001°25'2 3.7
2017-Nov-17 00:30N 44°44' W 001°25'1 1.9
2017-Nov-17 00:00N 44°45' W 001°24'2 3.5
2017-Nov-16 23:30N 44°47' W 001°24'2 3.5
2017-Nov-16 23:00N 44°48' W 001°24'1 1.1
2017-Nov-16 22:30N 44°48' W 001°24'2 3.8
2017-Nov-16 22:00N 44°47' W 001°24'2 3.8
2017-Nov-16 21:30N 44°45' W 001°25'2 3.8
2017-Nov-16 21:00N 44°43' W 001°25'2 4.2
2017-Nov-16 20:30N 44°41' W 001°24'1 1.2
2017-Nov-16 20:00N 44°41' W 001°23'2 3.4
2017-Nov-16 19:30N 44°43' W 001°24'2 3.4
2017-Nov-16 19:00N 44°45' W 001°24'2 3.5
2017-Nov-16 18:30N 44°46' W 001°23'2 3.6
2017-Nov-16 18:00N 44°48' W 001°23'1 2.5
2017-Nov-16 17:30N 44°49' W 001°24'2 3.5
2017-Nov-16 17:00N 44°48' W 001°23'2 3.5
2017-Nov-16 16:30N 44°46' W 001°24'0 0.7
2017-Nov-16 16:00N 44°46' W 001°24'2 3.8
2017-Nov-16 15:30N 44°47' W 001°24'2 3.5
2017-Nov-16 15:00N 44°49' W 001°24'2 3.2
2017-Nov-16 14:31N 44°48' W 001°24'2 3.5
2017-Nov-16 14:00N 44°46' W 001°24'2 3.5
2017-Nov-16 13:30N 44°44' W 001°24'2 3.4
2017-Nov-16 13:01N 44°42' W 001°23'2 3.9
2017-Nov-16 12:30N 44°41' W 001°24'1 2.6
2017-Nov-16 12:00N 44°42' W 001°24'2 3.6
2017-Nov-16 11:30N 44°44' W 001°25'2 3.7
2017-Nov-16 11:01N 44°45' W 001°24'2 3.5
2017-Nov-16 10:30N 44°47' W 001°25'2 3.5
2017-Nov-16 10:00N 44°49' W 001°25'1 1.4
2017-Nov-16 09:30N 44°49' W 001°25'2 3.8
2017-Nov-16 09:01N 44°48' W 001°25'2 3.8
2017-Nov-16 08:30N 44°46' W 001°26'2 3.1
2017-Nov-16 07:59N 44°44' W 001°26'2 3.1
2017-Nov-16 07:30N 44°46' W 001°26'2 3.6
2017-Nov-16 07:01N 44°47' W 001°26'1 2.0
2017-Nov-16 06:30N 44°48' W 001°25'2 3.6
2017-Nov-16 06:00N 44°46' W 001°25'2 3.5
2017-Nov-16 05:30N 44°44' W 001°24'2 3.5
2017-Nov-16 05:00N 44°43' W 001°23'2 3.4
2017-Nov-16 04:31N 44°41' W 001°23'2 3.8
2017-Nov-16 04:00N 44°39' W 001°23'2 3.8
2017-Nov-16 03:30N 44°37' W 001°23'2 3.3
2017-Nov-16 03:00N 44°36' W 001°23'2 3.6
2017-Nov-16 02:30N 44°34' W 001°23'2 3.6
2017-Nov-16 02:00N 44°32' W 001°23'3 3.6
2017-Nov-16 01:12N 44°29' W 001°23'1 3.6
2017-Nov-16 01:00N 44°28' W 001°23'2 3.6
2017-Nov-16 00:30N 44°27' W 001°22'2 3.7
2017-Nov-16 00:00N 44°25' W 001°22'2 3.8
2017-Nov-15 23:29N 44°23' W 001°22'6 3.6
2017-Nov-15 21:55N 44°17' W 001°24'1 3.6
2017-Nov-15 21:30N 44°16' W 001°25'2 2.2
2017-Nov-15 20:27N 44°18' W 001°23'2 3.8
2017-Nov-15 20:00N 44°20' W 001°23'1 2.5
2017-Nov-15 19:29N 44°21' W 001°22'4 3.7
2017-Nov-15 18:26N 44°17' W 001°24'2 3.8
2017-Nov-15 18:00N 44°16' W 001°24'1 2.6
2017-Nov-15 17:30N 44°17' W 001°24'2 3.8
2017-Nov-15 17:00N 44°19' W 001°23'2 3.9
2017-Nov-15 16:28N 44°21' W 001°23'2 3.9
2017-Nov-15 16:00N 44°22' W 001°22'1 1.9
2017-Nov-15 15:30N 44°23' W 001°21'2 3.6
2017-Nov-15 15:00N 44°21' W 001°22'2 3.7
2017-Nov-15 14:30N 44°19' W 001°22'2 3.7
2017-Nov-15 14:00N 44°17' W 001°23'2 3.9
2017-Nov-15 13:30N 44°16' W 001°24'1 1.6
2017-Nov-15 13:00N 44°16' W 001°24'2 3.9
2017-Nov-15 12:30N 44°18' W 001°23'2 3.8
2017-Nov-15 12:00N 44°20' W 001°22'1 1.1
2017-Nov-15 10:38N 44°21' W 001°22'0 3.8
2017-Nov-15 10:30N 44°21' W 001°22'2 3.8
2017-Nov-15 10:00N 44°19' W 001°23'7 3.8
2017-Nov-15 08:12N 44°12' W 001°24'1 3.7
2017-Nov-15 08:00N 44°12' W 001°24'4 2.4
2017-Nov-15 06:28N 44°08' W 001°27'4 1.1
2017-Nov-15 02:49N 44°12' W 001°26'1 3.9
2017-Nov-15 02:28N 44°14' W 001°25'2 3.7
2017-Nov-15 01:58N 44°15' W 001°26'2 3.6
2017-Nov-15 01:30N 44°17' W 001°26'2 3.6
2017-Nov-15 00:53N 44°19' W 001°26'1 3.7
2017-Nov-15 00:30N 44°21' W 001°26'2 3.6
2017-Nov-14 23:50N 44°23' W 001°26'2 3.9
2017-Nov-14 23:26N 44°24' W 001°28'2 3.5
2017-Nov-14 22:55N 44°26' W 001°28'2 3.7
2017-Nov-14 22:16N 44°29' W 001°27'1 3.7
2017-Nov-14 22:00N 44°30' W 001°27'2 3.6
2017-Nov-14 21:30N 44°31' W 001°27'2 3.3
2017-Nov-14 21:00N 44°32' W 001°25'2 3.5
2017-Nov-14 20:26N 44°30' W 001°25'2 3.6
2017-Nov-14 20:00N 44°29' W 001°24'2 3.7
2017-Nov-14 19:29N 44°27' W 001°24'2 2.7
2017-Nov-14 18:47N 44°25' W 001°23'2 0.7
2017-Nov-14 15:30N 44°23' W 001°23'2 3.8
2017-Nov-14 14:59N 44°24' W 001°24'1 0.3
2017-Nov-14 10:03N 44°25' W 001°26'0 3.8
2017-Nov-14 10:00N 44°25' W 001°26'2 3.8
2017-Nov-14 09:30N 44°27' W 001°26'2 3.6
2017-Nov-14 09:00N 44°29' W 001°25'2 3.8
2017-Nov-14 08:30N 44°31' W 001°25'2 3.7
2017-Nov-14 08:00N 44°33' W 001°25'2 3.7
2017-Nov-14 07:30N 44°35' W 001°26'2 4.0
2017-Nov-14 07:00N 44°37' W 001°26'3 6.7
2017-Nov-14 06:30N 44°40' W 001°26'5 9.1
2017-Nov-14 06:00N 44°45' W 001°26'5 9.1
2017-Nov-14 05:30N 44°49' W 001°25'8 9.0
2017-Nov-14 04:36N 44°57' W 001°25'1 8.9
2017-Nov-14 04:30N 44°58' W 001°25'33 9.3
2017-Nov-14 00:59N 45°31' W 001°22'6 8.9
2017-Nov-14 00:18N 45°37' W 001°21'44 1.5
2017-Nov-12 18:42N 44°53' W 001°26'2 4.6
2017-Nov-12 18:21N 44°51' W 001°26'2 6.8
2017-Nov-12 18:00N 44°49' W 001°26'2 4.2
2017-Nov-12 17:30N 44°47' W 001°26'4 7.6
2017-Nov-12 17:00N 44°43' W 001°26'4 7.7
2017-Nov-12 16:30N 44°39' W 001°26'4 7.6
2017-Nov-12 16:00N 44°35' W 001°26'4 7.6
2017-Nov-12 15:30N 44°31' W 001°26'4 7.4
2017-Nov-12 15:00N 44°28' W 001°26'6 1.8
2017-Nov-12 11:27N 44°21' W 001°25'3 3.4
2017-Nov-12 10:40N 44°24' W 001°24'1 3.9
2017-Nov-12 10:30N 44°25' W 001°24'2 3.0
2017-Nov-12 09:44N 44°27' W 001°24'1 3.7
2017-Nov-12 09:30N 44°28' W 001°24'2 3.5
2017-Nov-12 09:00N 44°30' W 001°24'2 3.0
2017-Nov-12 08:30N 44°28' W 001°25'2 3.6
2017-Nov-12 08:00N 44°26' W 001°25'2 3.6
2017-Nov-12 07:30N 44°25' W 001°25'3 3.7
2017-Nov-12 06:46N 44°22' W 001°25'1 3.5
2017-Nov-12 06:30N 44°21' W 001°25'1 2.1
2017-Nov-12 05:48N 44°19' W 001°25'1 2.8
2017-Nov-12 05:30N 44°19' W 001°25'2 3.5
2017-Nov-12 05:00N 44°17' W 001°25'2 3.5
2017-Nov-12 04:30N 44°15' W 001°25'2 3.5
2017-Nov-12 04:00N 44°13' W 001°25'2 3.7
2017-Nov-12 03:26N 44°11' W 001°25'2 3.5
2017-Nov-12 02:59N 44°10' W 001°26'2 3.5
2017-Nov-12 02:30N 44°08' W 001°26'2 3.5
2017-Nov-12 01:59N 44°06' W 001°27'0 1.0
2017-Nov-12 01:30N 44°06' W 001°27'2 3.4
2017-Nov-12 01:00N 44°08' W 001°26'2 3.5
2017-Nov-12 00:30N 44°09' W 001°26'2 3.4
2017-Nov-11 23:59N 44°11' W 001°26'2 3.4
2017-Nov-11 23:21N 44°13' W 001°26'1 3.4
2017-Nov-11 22:57N 44°15' W 001°26'4 3.4
2017-Nov-11 21:55N 44°18' W 001°25'2 3.2
2017-Nov-11 21:14N 44°20' W 001°26'1 2.9
2017-Nov-11 21:00N 44°21' W 001°26'2 3.4
2017-Nov-11 20:18N 44°23' W 001°26'1 3.2
2017-Nov-11 20:00N 44°24' W 001°26'2 3.4
2017-Nov-11 19:29N 44°26' W 001°26'1 2.0
2017-Nov-11 19:00N 44°27' W 001°25'2 3.3
2017-Nov-11 18:29N 44°25' W 001°25'2 3.4
2017-Nov-11 17:59N 44°23' W 001°25'2 1.5
2017-Nov-11 16:58N 44°22' W 001°25'2 3.3
2017-Nov-11 16:30N 44°23' W 001°25'2 3.2
2017-Nov-11 16:00N 44°25' W 001°25'2 3.3
2017-Nov-11 15:30N 44°27' W 001°24'2 3.4
2017-Nov-11 14:47N 44°29' W 001°24'1 3.4
2017-Nov-11 14:30N 44°30' W 001°23'2 3.4
2017-Nov-11 14:00N 44°32' W 001°23'2 3.4
2017-Nov-11 13:30N 44°33' W 001°23'1 2.7
2017-Nov-11 13:00N 44°34' W 001°22'2 3.2
2017-Nov-11 12:30N 44°36' W 001°21'2 3.4
2017-Nov-11 12:00N 44°38' W 001°21'2 3.4
2017-Nov-11 11:30N 44°39' W 001°20'2 3.5
2017-Nov-11 11:00N 44°41' W 001°20'2 3.6
2017-Nov-11 10:30N 44°43' W 001°19'2 3.6
2017-Nov-11 10:00N 44°44' W 001°19'2 3.2
2017-Nov-11 09:30N 44°46' W 001°19'2 3.4
2017-Nov-11 09:00N 44°48' W 001°18'2 3.7
2017-Nov-11 08:30N 44°50' W 001°18'2 3.8
2017-Nov-11 08:00N 44°51' W 001°18'2 3.8
2017-Nov-11 07:30N 44°53' W 001°17'2 3.7
2017-Nov-11 07:00N 44°55' W 001°17'69 3.2
2017-Nov-10 09:15N 46°04' W 001°32'2 3.6
2017-Nov-10 08:46N 46°02' W 001°31'  

Dump ship's entire track history